Cedar Point, North Carolina
Current Conditions -  °F | °C
As of 3:56 PM on Saturday 25 Oct 2014 (Local Time) from KNCA Reporting Station
Clear Clear  
Wind Chill: 23°   Ceiling: Unl
Heat Index: 23°   Visibility: 10mi
Dew Point:   Wind: 6mph
Humidity: 35%   Direction: 310°NW
Pressure: 29.89"   Gusts: NA
Location:  34.7017°N, 77.1399°W
Report Text: KNCA 251956Z AUTO 31005KT 10SM CLR 23/07 A2989 RMK AO2 SLP125 T02280067
Loading
Personal Weather Stations






























Interactive Weather Map
Tropical Storm Tracking
New forecast layout! Learn more

10-Day Weather Forecast

Advertisements
Track Severe Weather on mobile